createdAt,value
2022-09-12T00:01:34.330Z,19.45
2022-09-12T00:04:03.753Z,20.17
2022-09-12T00:06:35.921Z,19.92
2022-09-12T00:09:08.345Z,19.27
2022-09-12T00:11:39.146Z,19.05
2022-09-12T00:14:09.899Z,19.23
2022-09-12T00:16:39.775Z,18.90
2022-09-12T00:19:09.886Z,20.50
2022-09-12T00:21:40.768Z,19.40
2022-09-12T00:24:11.529Z,19.98
2022-09-12T00:26:40.928Z,19.95
2022-09-12T00:29:11.117Z,19.80
2022-09-12T00:31:40.507Z,19.62
2022-09-12T00:34:10.917Z,20.25
2022-09-12T00:36:40.609Z,20.85
2022-09-12T00:39:11.565Z,20.88
2022-09-12T00:41:41.448Z,20.95
2022-09-12T00:44:25.861Z,22.75
2022-09-12T00:47:02.076Z,22.07
2022-09-12T00:49:34.026Z,22.00
2022-09-12T00:52:11.807Z,21.75
2022-09-12T00:54:44.369Z,22.40
2022-09-12T00:59:51.039Z,21.55
2022-09-12T01:02:20.323Z,22.77
2022-09-12T01:04:49.594Z,22.95
2022-09-12T01:07:18.989Z,23.55
2022-09-12T01:09:48.439Z,23.87
2022-09-12T01:12:18.574Z,23.60
2022-09-12T01:14:47.799Z,24.27
2022-09-12T01:17:17.461Z,25.37
2022-09-12T01:20:17.046Z,23.98
2022-09-12T01:23:06.004Z,24.30
2022-09-12T01:26:05.757Z,24.30
2022-09-12T01:28:47.042Z,23.67
2022-09-12T01:31:22.204Z,24.37
2022-09-12T01:34:18.270Z,24.10
2022-09-12T01:36:53.809Z,24.85
2022-09-12T01:39:40.841Z,24.65
2022-09-12T01:42:25.317Z,25.02
2022-09-12T01:45:17.323Z,24.72
2022-09-12T01:48:00.231Z,26.10
2022-09-12T01:53:08.105Z,25.23
2022-09-12T01:55:52.445Z,24.75
2022-09-12T01:58:30.507Z,25.12
2022-09-12T02:01:11.604Z,25.80
2022-09-12T02:03:44.522Z,25.10
2022-09-12T02:06:20.086Z,25.48
2022-09-12T02:08:54.505Z,26.17
2022-09-12T02:11:23.952Z,25.92
2022-09-12T02:14:00.526Z,26.25
2022-09-12T02:16:38.430Z,26.17
2022-09-12T02:19:19.357Z,26.17
2022-09-12T02:22:02.799Z,26.20
2022-09-12T02:24:35.472Z,25.90
2022-09-12T02:32:12.091Z,25.90
2022-09-12T02:34:48.773Z,25.50
2022-09-12T02:37:46.877Z,25.35
2022-09-12T02:40:16.328Z,26.17
2022-09-12T02:42:45.655Z,25.88
2022-09-12T02:45:15.124Z,26.57
2022-09-12T02:47:50.110Z,25.40
2022-09-12T02:50:20.377Z,25.43
2022-09-12T02:52:49.689Z,25.95
2022-09-12T02:55:19.249Z,26.42
2022-09-12T02:57:48.482Z,27.55
2022-09-12T03:00:17.974Z,26.12
2022-09-12T03:03:23.670Z,26.68
2022-09-12T03:06:00.503Z,27.75
2022-09-12T03:08:48.228Z,27.13
2022-09-12T03:11:29.957Z,26.82
2022-09-12T03:14:11.103Z,27.30
2022-09-12T03:16:49.767Z,26.45
2022-09-12T03:19:24.790Z,26.45
2022-09-12T03:22:12.207Z,26.60
2022-09-12T03:24:50.412Z,26.80
2022-09-12T03:27:34.549Z,25.90
2022-09-12T03:30:06.199Z,25.97
2022-09-12T03:32:46.576Z,26.17
2022-09-12T03:35:22.228Z,26.48
2022-09-12T03:37:49.984Z,27.25
2022-09-12T03:40:19.567Z,26.75
2022-09-12T03:42:48.861Z,26.77
2022-09-12T03:45:18.270Z,26.90
2022-09-12T03:47:47.490Z,27.90
2022-09-12T03:50:17.290Z,27.42
2022-09-12T03:52:46.508Z,27.42
2022-09-12T03:55:15.995Z,27.52
2022-09-12T03:57:45.512Z,27.58
2022-09-12T04:00:19.571Z,28.23
2022-09-12T04:02:45.929Z,27.35
2022-09-12T04:05:15.265Z,29.35
2022-09-12T04:07:44.500Z,28.75
2022-09-12T04:10:16.232Z,28.30
2022-09-12T04:12:44.879Z,28.40
2022-09-12T04:15:14.238Z,29.37
2022-09-12T04:17:43.456Z,28.30
2022-09-12T04:20:12.709Z,27.77
2022-09-12T04:22:41.920Z,29.10
2022-09-12T04:25:11.915Z,28.25
2022-09-12T04:27:41.575Z,28.30
2022-09-12T04:30:11.290Z,28.65
2022-09-12T04:32:41.415Z,27.65
2022-09-12T04:35:12.335Z,28.00
2022-09-12T04:37:41.624Z,28.75
2022-09-12T04:40:11.337Z,28.40
2022-09-12T04:42:40.503Z,26.90
2022-09-12T04:45:10.126Z,28.05
2022-09-12T04:47:39.346Z,27.60
2022-09-12T04:50:10.234Z,29.12
2022-09-12T04:52:39.490Z,29.35
2022-09-12T04:55:10.573Z,28.77
2022-09-12T04:57:39.798Z,27.75
2022-09-12T05:00:11.951Z,27.77
2022-09-12T05:02:42.198Z,29.75
2022-09-12T05:05:12.238Z,28.00
2022-09-12T05:07:41.468Z,29.10
2022-09-12T05:10:12.050Z,29.50
2022-09-12T05:12:41.473Z,29.07
2022-09-12T05:15:11.842Z,29.35
2022-09-12T05:17:41.115Z,30.25
2022-09-12T05:20:12.266Z,29.57
2022-09-12T05:22:41.646Z,29.57
2022-09-12T05:25:11.271Z,30.08
2022-09-12T05:27:40.572Z,31.55
2022-09-12T05:30:11.331Z,31.97
2022-09-12T05:32:41.052Z,32.10
2022-09-12T05:35:11.133Z,31.05
2022-09-12T05:37:40.414Z,30.62
2022-09-12T05:40:10.586Z,30.57
2022-09-12T05:42:40.013Z,31.80
2022-09-12T05:45:09.744Z,32.17
2022-09-12T05:47:39.045Z,31.48
2022-09-12T05:50:10.356Z,33.95
2022-09-12T05:52:39.853Z,30.43
2022-09-12T05:55:09.560Z,33.70
2022-09-12T05:57:39.484Z,31.52
2022-09-12T06:00:10.111Z,32.93
2022-09-12T06:02:42.070Z,32.33
2022-09-12T06:05:11.551Z,35.08
2022-09-12T06:07:40.779Z,33.13
2022-09-12T06:10:12.028Z,33.20
2022-09-12T06:12:41.255Z,34.70
2022-09-12T06:15:11.921Z,33.75
2022-09-12T06:17:41.215Z,33.95
2022-09-12T06:20:10.928Z,35.03
2022-09-12T06:22:40.813Z,33.70
2022-09-12T06:25:10.203Z,31.93
2022-09-12T06:27:39.414Z,31.97
2022-09-12T06:30:09.238Z,32.05
2022-09-12T06:32:38.470Z,32.23
2022-09-12T06:35:08.348Z,31.65
2022-09-12T06:37:37.565Z,31.40
2022-09-12T06:40:08.630Z,30.60
2022-09-12T06:42:37.852Z,31.70
2022-09-12T06:45:07.743Z,30.72
2022-09-12T06:47:37.393Z,31.50
2022-09-12T06:50:07.617Z,31.80
2022-09-12T06:52:36.865Z,31.95
2022-09-12T06:55:06.526Z,32.75
2022-09-12T06:57:37.523Z,32.53
2022-09-12T07:00:07.839Z,33.50
2022-09-12T07:02:37.452Z,33.40
2022-09-12T07:05:08.367Z,34.43
2022-09-12T07:07:38.139Z,34.00
2022-09-12T07:10:08.209Z,33.90
2022-09-12T07:12:37.612Z,34.53
2022-09-12T07:15:07.268Z,35.03
2022-09-12T07:17:36.712Z,34.38
2022-09-12T07:20:08.108Z,34.13
2022-09-12T07:22:37.851Z,33.18
2022-09-12T07:25:09.281Z,31.95
2022-09-12T07:27:38.536Z,32.58
2022-09-12T07:30:08.509Z,31.60
2022-09-12T07:32:37.750Z,32.00
2022-09-12T07:35:07.625Z,30.00
2022-09-12T07:37:36.899Z,29.87
2022-09-12T07:40:06.522Z,30.25
2022-09-12T07:42:35.841Z,30.25
2022-09-12T07:45:05.486Z,29.32
2022-09-12T07:47:35.215Z,29.95
2022-09-12T07:50:05.805Z,27.98
2022-09-12T07:52:35.320Z,28.00
2022-09-12T07:55:05.082Z,26.87
2022-09-12T07:57:34.375Z,26.10
2022-09-12T08:00:03.895Z,25.72
2022-09-12T08:02:34.890Z,24.45
2022-09-12T08:05:04.187Z,25.60
2022-09-12T08:07:34.155Z,23.73
2022-09-12T08:10:03.521Z,22.90
2022-09-12T08:12:34.725Z,21.50
2022-09-12T08:15:04.003Z,20.88
2022-09-12T08:17:33.454Z,20.30
2022-09-12T08:20:02.847Z,20.52
2022-09-12T08:22:32.967Z,20.60
2022-09-12T08:25:02.320Z,19.70
2022-09-12T08:27:31.580Z,19.07
2022-09-12T08:30:00.913Z,18.90
2022-09-12T08:32:30.315Z,17.73
2022-09-12T08:34:59.592Z,16.70
2022-09-12T08:37:33.363Z,17.20
2022-09-12T08:40:02.842Z,17.65
2022-09-12T08:42:38.260Z,16.12
2022-09-12T08:45:10.656Z,15.45
2022-09-12T08:47:42.669Z,14.15
2022-09-12T08:50:15.823Z,14.47
2022-09-12T08:53:07.817Z,13.98
2022-09-12T08:55:39.674Z,13.93
2022-09-12T08:58:17.510Z,13.32
2022-09-12T09:01:05.001Z,13.15
2022-09-12T09:03:44.574Z,12.65
2022-09-12T09:06:35.019Z,11.60
2022-09-12T09:09:26.091Z,10.72
2022-09-12T09:11:58.484Z,10.13
2022-09-12T09:14:49.142Z,9.90
2022-09-12T09:17:48.281Z,9.78
2022-09-12T09:20:38.373Z,10.30
2022-09-12T09:23:15.311Z,9.33
2022-09-12T09:26:02.530Z,8.68
2022-09-12T09:28:51.054Z,7.83
2022-09-12T09:31:23.397Z,7.58
2022-09-12T09:33:57.586Z,7.47
2022-09-12T09:36:32.980Z,7.40
2022-09-12T09:39:14.647Z,7.45
2022-09-12T09:41:56.129Z,7.50
2022-09-12T09:44:25.409Z,7.17
2022-09-12T09:46:56.893Z,7.15
2022-09-12T09:49:31.394Z,7.60
2022-09-12T09:52:01.215Z,7.60
2022-09-12T09:54:45.752Z,7.42
2022-09-12T09:57:39.505Z,6.53
2022-09-12T10:00:27.630Z,6.65
2022-09-12T10:03:14.193Z,6.72
2022-09-12T10:05:52.031Z,6.60
2022-09-12T10:08:23.952Z,5.87
2022-09-12T10:11:01.998Z,6.30
2022-09-12T10:13:37.575Z,5.72
2022-09-12T10:16:10.208Z,5.03
2022-09-12T10:18:42.501Z,5.87
2022-09-12T10:21:20.678Z,5.35
2022-09-12T10:23:52.747Z,5.78
2022-09-12T10:26:22.147Z,4.83
2022-09-12T10:28:54.020Z,5.62
2022-09-12T10:31:31.834Z,5.25
2022-09-12T10:34:01.574Z,5.55
2022-09-12T10:36:39.034Z,6.08
2022-09-12T10:39:10.465Z,5.17
2022-09-12T10:41:40.903Z,5.25
2022-09-12T10:44:16.084Z,5.17
2022-09-12T10:46:45.344Z,4.80
2022-09-12T10:49:23.690Z,4.25
2022-09-12T10:51:55.112Z,4.70
2022-09-12T10:54:27.419Z,5.30
2022-09-12T10:57:11.818Z,4.83
2022-09-12T10:59:44.341Z,4.47
2022-09-12T11:02:29.420Z,3.62
2022-09-12T11:05:10.821Z,3.50
2022-09-12T11:07:43.340Z,4.12
2022-09-12T11:10:15.735Z,3.70
2022-09-12T11:13:04.811Z,3.27
2022-09-12T11:15:46.814Z,3.58
2022-09-12T11:21:26.997Z,2.92
2022-09-12T11:24:08.251Z,3.57
2022-09-12T11:26:51.978Z,3.65
2022-09-12T11:29:24.480Z,3.15
2022-09-12T11:32:15.936Z,3.20
2022-09-12T11:35:06.282Z,3.08
2022-09-12T11:38:01.012Z,3.30
2022-09-12T11:40:36.262Z,2.83
2022-09-12T11:43:24.931Z,3.40
2022-09-12T11:45:54.678Z,3.60
2022-09-12T11:48:45.255Z,3.60
2022-09-12T11:51:20.511Z,3.77
2022-09-12T11:53:56.332Z,3.58
2022-09-12T11:56:29.589Z,4.33
2022-09-12T11:59:04.870Z,3.20
2022-09-12T12:01:41.978Z,3.58
2022-09-12T12:04:11.324Z,3.40
2022-09-12T12:07:04.528Z,2.83
2022-09-12T12:09:34.503Z,3.12
2022-09-12T12:12:06.820Z,2.87
2022-09-12T12:14:44.291Z,3.12
2022-09-12T12:17:22.253Z,3.00
2022-09-12T12:20:08.616Z,3.08
2022-09-12T12:22:37.187Z,3.20
2022-09-12T12:25:21.287Z,2.70
2022-09-12T12:27:51.549Z,2.87
2022-09-12T12:30:33.419Z,2.30
2022-09-12T12:33:14.653Z,3.20
2022-09-12T12:35:48.798Z,2.70
2022-09-12T12:38:36.126Z,3.45
2022-09-12T12:41:24.208Z,3.20
2022-09-12T12:43:56.425Z,2.80
2022-09-12T12:46:27.974Z,2.75
2022-09-12T12:49:12.098Z,2.90
2022-09-12T12:51:56.662Z,3.50
2022-09-12T12:54:43.832Z,3.12
2022-09-12T12:57:33.817Z,3.83
2022-09-12T13:00:09.814Z,3.87
2022-09-12T13:02:41.279Z,3.40
2022-09-12T13:05:25.749Z,2.87
2022-09-12T13:07:57.757Z,3.20
2022-09-12T13:13:01.373Z,3.08
2022-09-12T13:15:40.318Z,2.67
2022-09-12T13:18:15.239Z,2.60
2022-09-12T13:21:10.032Z,2.65
2022-09-12T13:23:39.833Z,2.80
2022-09-12T13:26:15.448Z,2.77
2022-09-12T13:28:44.792Z,3.15
2022-09-12T13:31:25.410Z,3.00
2022-09-12T13:33:59.222Z,3.10
2022-09-12T13:36:55.221Z,2.80
2022-09-12T13:39:53.793Z,2.90
2022-09-12T13:42:38.093Z,3.05
2022-09-12T13:45:12.997Z,2.70
2022-09-12T13:47:47.067Z,2.60
2022-09-12T13:50:19.456Z,2.65
2022-09-12T13:52:51.938Z,3.27
2022-09-12T13:55:35.247Z,2.77
2022-09-12T13:58:07.078Z,2.80
2022-09-12T14:00:37.283Z,2.80
2022-09-12T14:03:39.642Z,3.08
2022-09-12T14:06:09.065Z,2.75
2022-09-12T14:08:41.606Z,2.85
2022-09-12T14:11:12.510Z,3.05
2022-09-12T14:13:41.912Z,3.20
2022-09-12T14:16:12.339Z,2.80
2022-09-12T14:18:43.889Z,2.80
2022-09-12T14:21:15.820Z,2.65
2022-09-12T14:23:48.669Z,2.30
2022-09-12T14:26:18.470Z,2.72
2022-09-12T14:28:48.449Z,2.75
2022-09-12T14:31:32.210Z,3.00
2022-09-12T14:34:13.481Z,3.00
2022-09-12T14:36:50.836Z,3.00
2022-09-12T14:39:38.223Z,2.87
2022-09-12T14:42:18.939Z,2.72
2022-09-12T14:45:01.881Z,3.00
2022-09-12T14:47:40.401Z,2.67
2022-09-12T14:50:21.884Z,2.50
2022-09-12T14:53:06.243Z,2.50
2022-09-12T14:55:38.027Z,2.50
2022-09-12T14:58:24.009Z,2.75
2022-09-12T15:00:58.209Z,2.58
2022-09-12T15:03:35.657Z,2.70
2022-09-12T15:06:08.166Z,2.62
2022-09-12T15:08:37.575Z,2.47
2022-09-12T15:11:08.040Z,2.80
2022-09-12T15:13:41.894Z,2.60
2022-09-12T15:16:12.708Z,2.60
2022-09-12T15:18:41.941Z,2.67
2022-09-12T15:21:16.985Z,2.47
2022-09-12T15:23:51.180Z,2.20
2022-09-12T15:26:23.306Z,2.62
2022-09-12T15:28:52.857Z,2.70
2022-09-12T15:31:26.993Z,2.62
2022-09-12T15:33:57.904Z,2.37
2022-09-12T15:36:28.766Z,2.47
2022-09-12T15:38:58.047Z,2.30
2022-09-12T15:41:36.458Z,2.42
2022-09-12T15:44:08.144Z,2.50
2022-09-12T15:46:37.449Z,2.42
2022-09-12T15:49:09.650Z,2.52
2022-09-12T15:54:07.310Z,2.50
2022-09-12T15:56:36.510Z,2.22
2022-09-12T15:59:05.911Z,2.30
2022-09-12T16:01:35.156Z,2.50
2022-09-12T16:04:04.678Z,2.40
2022-09-12T16:06:37.204Z,2.60
2022-09-12T16:09:07.053Z,2.40
2022-09-12T16:11:36.331Z,2.45
2022-09-12T16:14:06.279Z,2.35
2022-09-12T16:16:35.733Z,2.33
2022-09-12T16:19:05.044Z,2.08
2022-09-12T16:21:34.247Z,2.40
2022-09-12T16:24:04.037Z,4.40
2022-09-12T16:26:33.655Z,2.30
2022-09-12T16:29:03.317Z,2.87
2022-09-12T16:31:32.738Z,2.45
2022-09-12T16:34:02.361Z,2.70
2022-09-12T16:36:31.563Z,2.60
2022-09-12T16:39:01.126Z,2.58
2022-09-12T16:41:30.509Z,2.45
2022-09-12T16:43:59.783Z,2.55
2022-09-12T16:46:29.791Z,6.35
2022-09-12T16:48:59.948Z,3.72
2022-09-12T16:51:35.968Z,2.42
2022-09-12T16:54:05.306Z,2.55
2022-09-12T16:56:34.520Z,2.72
2022-09-12T16:59:05.500Z,2.70
2022-09-12T17:01:36.619Z,2.62
2022-09-12T17:04:06.755Z,2.52
2022-09-12T17:06:40.742Z,2.72
2022-09-12T17:09:13.405Z,2.72
2022-09-12T17:11:42.675Z,3.05
2022-09-12T17:14:15.056Z,3.02
2022-09-12T17:16:51.685Z,2.90
2022-09-12T17:19:33.212Z,3.00
2022-09-12T17:22:02.413Z,3.00
2022-09-12T17:24:33.032Z,2.87
2022-09-12T17:27:02.327Z,2.75
2022-09-12T17:29:31.641Z,3.17
2022-09-12T17:32:00.859Z,2.77
2022-09-12T17:34:30.414Z,3.55
2022-09-12T17:36:59.700Z,3.00
2022-09-12T17:39:29.232Z,3.00
2022-09-12T17:42:00.132Z,3.02
2022-09-12T17:44:30.424Z,3.08
2022-09-12T17:46:59.727Z,3.05
2022-09-12T17:49:29.096Z,2.80
2022-09-12T17:51:58.301Z,3.27
2022-09-12T17:54:27.691Z,3.37
2022-09-12T17:56:56.978Z,8.50
2022-09-12T17:59:27.731Z,14.73
2022-09-12T18:02:15.601Z,6.37
2022-09-12T18:04:50.758Z,4.40
2022-09-12T18:07:22.337Z,3.20
2022-09-12T18:09:56.561Z,3.10
2022-09-12T18:14:57.361Z,3.12
2022-09-12T18:17:28.538Z,2.98
2022-09-12T18:19:57.957Z,6.03
2022-09-12T18:22:27.295Z,14.18
2022-09-12T18:24:56.719Z,10.58
2022-09-12T18:27:32.408Z,8.60
2022-09-12T18:30:20.623Z,6.60
2022-09-12T18:32:33.119Z,9.58
2022-09-12T18:35:04.361Z,5.70
2022-09-12T18:37:36.545Z,5.80
2022-09-12T18:40:09.437Z,4.95
2022-09-12T18:42:40.336Z,4.35
2022-09-12T18:45:10.270Z,3.47
2022-09-12T18:47:42.331Z,3.20
2022-09-12T18:50:11.842Z,3.60
2022-09-12T18:52:41.195Z,3.35
2022-09-12T18:55:10.988Z,3.33
2022-09-12T18:57:42.099Z,3.10
2022-09-12T19:00:13.424Z,3.40
2022-09-12T19:02:42.771Z,5.03
2022-09-12T19:05:12.828Z,6.70
2022-09-12T19:07:42.062Z,5.35
2022-09-12T19:10:12.068Z,5.92
2022-09-12T19:12:41.318Z,4.40
2022-09-12T19:15:10.971Z,4.62
2022-09-12T19:17:40.179Z,4.80
2022-09-12T19:20:09.852Z,4.78
2022-09-12T19:22:39.218Z,4.92
2022-09-12T19:25:09.405Z,4.37
2022-09-12T19:27:38.675Z,4.42
2022-09-12T19:30:08.682Z,3.87
2022-09-12T19:32:37.896Z,3.77
2022-09-12T19:35:07.659Z,4.40
2022-09-12T19:37:36.935Z,4.58
2022-09-12T19:40:07.877Z,4.70
2022-09-12T19:42:37.179Z,4.50
2022-09-12T19:45:07.199Z,4.72
2022-09-12T19:47:36.577Z,4.92
2022-09-12T19:50:06.727Z,4.40
2022-09-12T19:52:36.242Z,4.50
2022-09-12T19:55:05.710Z,4.15
2022-09-12T19:57:35.123Z,4.30
2022-09-12T20:00:06.916Z,4.58
2022-09-12T20:02:36.412Z,4.60
2022-09-12T20:05:06.299Z,5.22
2022-09-12T20:07:35.684Z,4.87
2022-09-12T20:10:05.660Z,4.17
2022-09-12T20:12:34.975Z,5.10
2022-09-12T20:15:05.019Z,5.83
2022-09-12T20:17:34.606Z,5.55
2022-09-12T20:20:04.070Z,5.25
2022-09-12T20:22:37.964Z,5.17
2022-09-12T20:25:04.904Z,5.05
2022-09-12T20:27:34.312Z,5.33
2022-09-12T20:30:03.749Z,5.50
2022-09-12T20:32:33.208Z,4.65
2022-09-12T20:35:02.764Z,5.08
2022-09-12T20:37:32.084Z,4.17
2022-09-12T20:40:01.368Z,4.78
2022-09-12T20:42:31.231Z,5.80
2022-09-12T20:45:00.489Z,5.17
2022-09-12T20:47:31.419Z,4.92
2022-09-12T20:50:00.823Z,5.40
2022-09-12T20:52:30.200Z,9.38
2022-09-12T20:54:59.465Z,17.77
2022-09-12T20:57:28.870Z,6.95
2022-09-12T20:59:58.108Z,4.67
2022-09-12T21:02:29.281Z,5.28
2022-09-12T21:04:59.340Z,5.55
2022-09-12T21:07:28.796Z,5.30
2022-09-12T21:09:58.816Z,5.05
2022-09-12T21:12:31.496Z,6.05
2022-09-12T21:15:00.902Z,7.65
2022-09-12T21:17:30.239Z,7.75
2022-09-12T21:19:59.643Z,8.38
2022-09-12T21:22:29.118Z,7.78
2022-09-12T21:24:58.447Z,8.40
2022-09-12T21:27:27.930Z,9.35
2022-09-12T21:29:57.483Z,8.18
2022-09-12T21:32:28.746Z,8.68
2022-09-12T21:34:58.112Z,7.90
2022-09-12T21:37:27.728Z,7.72
2022-09-12T21:40:01.447Z,7.50
2022-09-12T21:42:31.760Z,7.55
2022-09-12T21:45:01.041Z,7.10
2022-09-12T21:47:30.334Z,7.40
2022-09-12T21:49:59.748Z,7.10
2022-09-12T21:52:29.065Z,7.30
2022-09-12T21:54:58.385Z,6.83
2022-09-12T21:57:27.706Z,6.97
2022-09-12T21:59:57.987Z,6.97
2022-09-12T22:02:29.384Z,7.17
2022-09-12T22:04:59.184Z,7.05
2022-09-12T22:07:29.321Z,8.00
2022-09-12T22:09:58.668Z,7.30
2022-09-12T22:12:30.902Z,7.62
2022-09-12T22:15:08.929Z,7.45
2022-09-12T22:17:31.201Z,8.45
2022-09-12T22:20:00.437Z,7.80
2022-09-12T22:22:47.696Z,7.50
2022-09-12T22:25:17.031Z,7.85
2022-09-12T22:27:46.455Z,7.80
2022-09-12T22:30:18.989Z,8.40
2022-09-12T22:35:20.928Z,7.83
2022-09-12T22:37:50.251Z,7.58
2022-09-12T22:40:19.872Z,8.58
2022-09-12T22:42:50.946Z,7.87
2022-09-12T22:45:20.263Z,8.30
2022-09-12T22:47:49.717Z,9.20
2022-09-12T22:50:18.989Z,8.50
2022-09-12T22:52:48.355Z,8.35
2022-09-12T22:55:17.988Z,9.00
2022-09-12T22:57:49.212Z,7.83
2022-09-12T23:00:19.513Z,7.83
2022-09-12T23:02:48.864Z,8.53
2022-09-12T23:05:18.418Z,8.23
2022-09-12T23:07:47.646Z,8.43
2022-09-12T23:10:17.056Z,9.05
2022-09-12T23:12:46.266Z,8.45
2022-09-12T23:15:15.568Z,9.30
2022-09-12T23:17:44.887Z,8.90
2022-09-12T23:20:14.120Z,8.38
2022-09-12T23:22:43.525Z,8.88
2022-09-12T23:25:12.902Z,8.58
2022-09-12T23:27:43.447Z,9.05
2022-09-12T23:30:13.102Z,9.45
2022-09-12T23:32:42.362Z,9.25
2022-09-12T23:35:12.718Z,8.58
2022-09-12T23:37:42.134Z,8.88
2022-09-12T23:40:12.217Z,9.40
2022-09-12T23:42:41.562Z,8.80
2022-09-12T23:45:11.301Z,9.35
2022-09-12T23:47:40.648Z,9.25
2022-09-12T23:50:10.484Z,9.08
2022-09-12T23:52:39.854Z,8.28
2022-09-12T23:55:11.068Z,8.78
2022-09-12T23:57:40.376Z,8.75
